createdAt,value
2023-09-20T00:02:15.620Z,9.20
2023-09-20T00:04:44.134Z,8.30
2023-09-20T00:07:12.828Z,11.20
2023-09-20T00:09:41.716Z,10.40
2023-09-20T00:12:09.765Z,10.20
2023-09-20T00:14:37.920Z,10.30
2023-09-20T00:17:06.062Z,8.50
2023-09-20T00:19:34.002Z,9.70
2023-09-20T00:22:01.803Z,8.30
2023-09-20T00:24:29.594Z,8.00
2023-09-20T00:26:57.316Z,7.90
2023-09-20T00:29:27.762Z,11.30
2023-09-20T00:31:56.844Z,11.60
2023-09-20T00:34:25.160Z,9.00
2023-09-20T00:36:52.874Z,8.40
2023-09-20T00:39:20.685Z,7.90
2023-09-20T00:41:49.285Z,7.80
2023-09-20T00:44:18.336Z,8.80
2023-09-20T00:46:47.860Z,8.50
2023-09-20T00:49:15.733Z,8.90
2023-09-20T00:51:46.082Z,7.80
2023-09-20T00:54:16.679Z,9.30
2023-09-20T00:56:44.535Z,8.10
2023-09-20T00:59:12.842Z,8.30
2023-09-20T01:01:42.073Z,9.90
2023-09-20T01:04:10.599Z,8.10
2023-09-20T01:06:42.361Z,9.40
2023-09-20T01:09:11.090Z,10.10
2023-09-20T01:11:39.417Z,11.70
2023-09-20T01:14:07.312Z,8.40
2023-09-20T01:16:35.127Z,7.80
2023-09-20T01:19:05.949Z,8.60
2023-09-20T01:21:48.223Z,7.70
2023-09-20T01:24:20.107Z,8.50
2023-09-20T01:26:50.263Z,8.10
2023-09-20T01:29:18.059Z,7.40
2023-09-20T01:31:48.340Z,8.10
2023-09-20T01:34:16.199Z,8.10
2023-09-20T01:36:43.980Z,7.70
2023-09-20T01:39:13.458Z,9.90
2023-09-20T01:41:41.252Z,6.90
2023-09-20T01:44:09.062Z,8.70
2023-09-20T01:46:38.186Z,9.20
2023-09-20T01:49:06.708Z,8.20
2023-09-20T01:51:34.962Z,8.10
2023-09-20T01:54:04.927Z,8.70
2023-09-20T01:56:32.812Z,8.40
2023-09-20T01:59:00.964Z,8.90
2023-09-20T02:01:28.821Z,9.70
2023-09-20T02:03:57.224Z,9.30
2023-09-20T02:06:25.117Z,8.10
2023-09-20T02:08:54.636Z,9.00
2023-09-20T02:11:22.717Z,6.80
2023-09-20T02:13:50.487Z,10.70
2023-09-20T02:16:18.436Z,8.50
2023-09-20T02:18:48.072Z,7.80
2023-09-20T02:21:16.820Z,11.20
2023-09-20T02:23:44.812Z,7.70
2023-09-20T02:26:14.074Z,8.10
2023-09-20T02:28:42.253Z,7.60
2023-09-20T02:31:10.560Z,7.50
2023-09-20T02:33:39.732Z,8.30
2023-09-20T02:36:08.007Z,8.10
2023-09-20T02:38:36.926Z,7.30
2023-09-20T02:41:04.986Z,9.00
2023-09-20T02:43:32.833Z,9.90
2023-09-20T02:46:03.078Z,7.40
2023-09-20T02:48:30.847Z,8.60
2023-09-20T02:51:02.053Z,8.90
2023-09-20T02:53:29.830Z,8.70
2023-09-20T02:55:57.785Z,10.60
2023-09-20T02:58:25.573Z,9.70
2023-09-20T03:00:54.039Z,10.90
2023-09-20T03:03:24.585Z,9.90
2023-09-20T03:05:52.702Z,11.70
2023-09-20T03:08:20.484Z,10.40
2023-09-20T03:10:48.192Z,11.50
2023-09-20T03:13:19.772Z,9.60
2023-09-20T03:15:50.246Z,8.00
2023-09-20T03:18:18.113Z,7.40
2023-09-20T03:20:49.721Z,10.40
2023-09-20T03:23:18.192Z,8.10
2023-09-20T03:25:46.138Z,9.10
2023-09-20T03:28:13.858Z,9.20
2023-09-20T03:30:41.710Z,9.50
2023-09-20T03:33:10.490Z,9.50
2023-09-20T03:35:39.117Z,9.70
2023-09-20T03:38:07.267Z,8.80
2023-09-20T03:40:35.125Z,7.10
2023-09-20T03:43:08.567Z,8.80
2023-09-20T03:45:36.682Z,9.50
2023-09-20T03:48:04.810Z,9.20
2023-09-20T03:50:32.653Z,10.00
2023-09-20T03:53:01.517Z,7.30
2023-09-20T03:55:29.444Z,9.10
2023-09-20T03:57:57.219Z,8.00
2023-09-20T04:00:29.993Z,8.10
2023-09-20T04:02:59.962Z,9.10
2023-09-20T04:05:44.250Z,7.00
2023-09-20T04:08:14.438Z,9.60
2023-09-20T04:10:42.967Z,8.20
2023-09-20T04:13:10.778Z,9.20
2023-09-20T04:15:42.286Z,9.00
2023-09-20T04:18:10.685Z,9.40
2023-09-20T04:20:40.070Z,7.20
2023-09-20T04:23:08.618Z,8.00
2023-09-20T04:25:36.572Z,9.20
2023-09-20T04:28:04.797Z,7.60
2023-09-20T04:30:32.744Z,7.90
2023-09-20T04:33:00.653Z,8.20
2023-09-20T04:35:28.734Z,7.50
2023-09-20T04:37:56.620Z,9.10
2023-09-20T04:40:25.423Z,7.30
2023-09-20T04:42:53.533Z,8.60
2023-09-20T04:45:21.260Z,8.10
2023-09-20T04:47:51.130Z,8.10
2023-09-20T04:50:19.386Z,9.90
2023-09-20T04:52:48.242Z,7.90
2023-09-20T04:55:16.040Z,9.10
2023-09-20T04:57:44.853Z,8.10
2023-09-20T05:00:16.037Z,7.30
2023-09-20T05:02:46.663Z,8.10
2023-09-20T05:05:17.739Z,7.70
2023-09-20T05:07:46.072Z,8.50
2023-09-20T05:10:13.914Z,7.40
2023-09-20T05:12:42.603Z,8.60
2023-09-20T05:15:14.120Z,8.20
2023-09-20T05:17:42.767Z,9.90
2023-09-20T05:20:15.066Z,7.90
2023-09-20T05:22:42.840Z,10.30
2023-09-20T05:25:10.912Z,8.40
2023-09-20T05:27:39.037Z,8.30
2023-09-20T05:30:08.290Z,7.30
2023-09-20T05:32:37.173Z,6.60
2023-09-20T05:35:07.752Z,6.80
2023-09-20T05:37:36.423Z,7.40
2023-09-20T05:40:04.775Z,9.80
2023-09-20T05:42:33.541Z,8.50
2023-09-20T05:45:01.405Z,7.70
2023-09-20T05:47:29.306Z,8.50
2023-09-20T05:49:57.895Z,6.40
2023-09-20T05:52:25.733Z,15.00
2023-09-20T05:54:53.610Z,8.20
2023-09-20T05:57:23.445Z,8.60
2023-09-20T05:59:53.575Z,7.60
2023-09-20T06:02:21.692Z,7.90
2023-09-20T06:04:49.535Z,7.70
2023-09-20T06:07:17.347Z,7.50
2023-09-20T06:09:45.438Z,7.50
2023-09-20T06:12:13.127Z,8.70
2023-09-20T06:14:41.094Z,8.00
2023-09-20T06:17:08.997Z,7.00
2023-09-20T06:19:39.245Z,6.50
2023-09-20T06:22:07.089Z,9.70
2023-09-20T06:24:36.216Z,6.20
2023-09-20T06:27:04.333Z,6.70
2023-09-20T06:29:32.037Z,6.10
2023-09-20T06:32:00.074Z,6.10
2023-09-20T06:34:28.164Z,9.20
2023-09-20T06:36:55.919Z,5.60
2023-09-20T06:39:23.672Z,8.50
2023-09-20T06:41:51.500Z,7.90
2023-09-20T06:44:19.773Z,5.40
2023-09-20T06:46:47.625Z,6.50
2023-09-20T06:49:15.463Z,6.30
2023-09-20T06:51:44.565Z,7.40
2023-09-20T06:54:12.522Z,9.30
2023-09-20T06:56:40.371Z,8.10
2023-09-20T06:59:08.328Z,6.20
2023-09-20T07:01:36.099Z,5.90
2023-09-20T07:04:06.123Z,6.50
2023-09-20T07:06:34.478Z,4.80
2023-09-20T07:09:02.184Z,5.70
2023-09-20T07:11:30.519Z,7.20
2023-09-20T07:14:01.021Z,5.60
2023-09-20T07:16:28.805Z,6.80
2023-09-20T07:18:59.400Z,5.80
2023-09-20T07:21:28.690Z,6.10
2023-09-20T07:24:00.425Z,5.60
2023-09-20T07:26:28.278Z,5.00
2023-09-20T07:28:56.097Z,5.20
2023-09-20T07:31:27.974Z,6.60
2023-09-20T07:33:57.293Z,4.30
2023-09-20T07:36:37.008Z,6.00
2023-09-20T07:39:14.076Z,6.70
2023-09-20T07:41:51.255Z,4.60
2023-09-20T07:44:25.668Z,8.60
2023-09-20T07:46:53.949Z,5.40
2023-09-20T07:49:21.891Z,6.90
2023-09-20T07:51:51.327Z,4.60
2023-09-20T07:54:19.225Z,4.40
2023-09-20T07:56:53.840Z,5.10
2023-09-20T07:59:24.828Z,4.90
2023-09-20T08:01:53.905Z,4.00
2023-09-20T08:04:23.191Z,4.60
2023-09-20T08:06:51.077Z,4.70
2023-09-20T08:09:18.847Z,3.70
2023-09-20T08:11:48.271Z,5.30
2023-09-20T08:14:16.414Z,5.50
2023-09-20T08:17:01.488Z,4.50
2023-09-20T08:19:32.618Z,4.30
2023-09-20T08:22:00.423Z,4.60
2023-09-20T08:24:46.788Z,4.20
2023-09-20T08:27:33.055Z,5.80
2023-09-20T08:30:19.184Z,6.70
2023-09-20T08:33:05.555Z,5.50
2023-09-20T08:35:51.905Z,6.00
2023-09-20T08:38:38.241Z,5.60
2023-09-20T08:41:25.601Z,7.10
2023-09-20T08:44:13.548Z,5.60
2023-09-20T08:47:01.961Z,5.30
2023-09-20T08:49:51.336Z,6.60
2023-09-20T08:52:40.322Z,6.60
2023-09-20T08:55:28.664Z,2.40
2023-09-20T08:58:16.889Z,4.80
2023-09-20T09:00:48.061Z,3.30
2023-09-20T09:03:17.321Z,4.40
2023-09-20T09:05:45.405Z,5.10
2023-09-20T09:08:14.787Z,4.00
2023-09-20T09:10:42.725Z,5.10
2023-09-20T09:13:10.471Z,3.70
2023-09-20T09:15:38.562Z,5.40
2023-09-20T09:18:18.865Z,4.50
2023-09-20T09:20:50.676Z,6.20
2023-09-20T09:23:33.467Z,5.40
2023-09-20T09:26:01.222Z,5.70
2023-09-20T09:28:32.642Z,5.00
2023-09-20T09:31:01.830Z,5.80
2023-09-20T09:33:30.223Z,4.00
2023-09-20T09:35:58.623Z,5.30
2023-09-20T09:38:27.416Z,3.90
2023-09-20T09:40:58.108Z,3.90
2023-09-20T09:43:31.013Z,5.20
2023-09-20T09:46:08.477Z,4.40
2023-09-20T09:48:44.203Z,2.40
2023-09-20T09:51:14.776Z,4.60
2023-09-20T09:53:46.943Z,3.60
2023-09-20T09:56:17.635Z,3.60
2023-09-20T09:58:45.470Z,5.00
2023-09-20T10:01:18.921Z,3.90
2023-09-20T10:03:51.597Z,4.80
2023-09-20T10:06:29.106Z,4.10
2023-09-20T10:09:06.016Z,5.50
2023-09-20T10:11:34.095Z,6.40
2023-09-20T10:14:06.267Z,4.40
2023-09-20T10:16:36.124Z,3.70
2023-09-20T10:19:12.072Z,3.90
2023-09-20T10:22:00.715Z,3.50
2023-09-20T10:24:30.403Z,5.30
2023-09-20T10:27:03.594Z,3.10
2023-09-20T10:29:34.152Z,5.40
2023-09-20T10:32:24.949Z,3.20
2023-09-20T10:35:31.178Z,3.60
2023-09-20T10:38:09.842Z,3.30
2023-09-20T10:40:46.871Z,3.20
2023-09-20T10:43:37.872Z,4.30
2023-09-20T10:46:18.903Z,3.90
2023-09-20T10:48:50.918Z,2.50
2023-09-20T10:51:49.516Z,2.90
2023-09-20T10:54:26.601Z,4.20
2023-09-20T10:57:22.976Z,4.70
2023-09-20T10:59:54.543Z,5.10
2023-09-20T11:02:22.291Z,3.10
2023-09-20T11:04:51.324Z,2.60
2023-09-20T11:07:19.554Z,4.10
2023-09-20T11:09:48.701Z,3.70
2023-09-20T11:12:16.997Z,3.20
2023-09-20T11:14:46.288Z,4.90
2023-09-20T11:17:17.821Z,3.30
2023-09-20T11:19:46.747Z,4.60
2023-09-20T11:22:19.926Z,3.40
2023-09-20T11:24:49.209Z,4.10
2023-09-20T11:27:17.246Z,3.70
2023-09-20T11:29:45.699Z,3.90
2023-09-20T11:32:14.017Z,5.30
2023-09-20T11:34:49.504Z,3.00
2023-09-20T11:37:22.102Z,4.00
2023-09-20T11:39:53.149Z,2.40
2023-09-20T11:42:35.943Z,3.80
2023-09-20T11:45:27.192Z,5.00
2023-09-20T11:47:57.767Z,3.10
2023-09-20T11:50:28.515Z,4.50
2023-09-20T11:52:56.923Z,2.70
2023-09-20T11:55:27.736Z,3.80
2023-09-20T11:58:01.056Z,4.00
2023-09-20T12:00:31.239Z,4.80
2023-09-20T12:03:00.707Z,4.00
2023-09-20T12:05:29.688Z,2.80
2023-09-20T12:08:03.630Z,5.30
2023-09-20T12:10:31.970Z,3.30
2023-09-20T12:13:01.523Z,2.20
2023-09-20T12:15:29.301Z,3.50
2023-09-20T12:17:58.231Z,2.90
2023-09-20T12:20:27.773Z,2.90
2023-09-20T12:23:03.255Z,3.40
2023-09-20T12:25:34.124Z,3.50
2023-09-20T12:28:02.213Z,3.30
2023-09-20T12:30:30.446Z,4.00
2023-09-20T12:33:01.466Z,4.60
2023-09-20T12:35:32.040Z,3.50
2023-09-20T12:37:59.901Z,3.60
2023-09-20T12:40:28.763Z,2.60
2023-09-20T12:43:02.629Z,2.90
2023-09-20T12:45:30.921Z,3.80
2023-09-20T12:47:58.921Z,3.60
2023-09-20T12:50:27.119Z,9.30
2023-09-20T12:52:55.774Z,7.10
2023-09-20T12:55:23.530Z,8.40
2023-09-20T12:57:51.394Z,3.70
2023-09-20T13:00:34.051Z,3.80
2023-09-20T13:03:09.437Z,3.50
2023-09-20T13:05:41.673Z,2.60
2023-09-20T13:08:11.982Z,2.60
2023-09-20T13:10:40.242Z,2.40
2023-09-20T13:13:10.119Z,3.20
2023-09-20T13:15:43.556Z,3.10
2023-09-20T13:18:13.233Z,3.50
2023-09-20T13:20:44.395Z,2.50
2023-09-20T13:23:12.957Z,3.00
2023-09-20T13:25:44.049Z,2.20
2023-09-20T13:28:13.980Z,3.50
2023-09-20T13:30:42.563Z,3.50
2023-09-20T13:33:15.462Z,3.90
2023-09-20T13:35:44.385Z,3.00
2023-09-20T13:38:15.143Z,3.20
2023-09-20T13:40:48.152Z,3.30
2023-09-20T13:43:16.161Z,3.20
2023-09-20T13:45:44.834Z,3.80
2023-09-20T13:48:13.616Z,3.80
2023-09-20T13:50:45.460Z,4.70
2023-09-20T13:53:14.496Z,3.80
2023-09-20T13:55:42.765Z,3.60
2023-09-20T13:58:11.014Z,3.50
2023-09-20T14:00:39.377Z,7.80
2023-09-20T14:03:08.947Z,3.40
2023-09-20T14:05:37.721Z,4.30
2023-09-20T14:08:05.984Z,2.80
2023-09-20T14:10:35.242Z,3.10
2023-09-20T14:13:03.497Z,3.50
2023-09-20T14:15:31.807Z,2.30
2023-09-20T14:18:02.062Z,4.10
2023-09-20T14:20:30.574Z,3.00
2023-09-20T14:22:58.587Z,5.00
2023-09-20T14:25:29.544Z,4.10
2023-09-20T14:27:58.325Z,3.60
2023-09-20T14:30:26.443Z,3.70
2023-09-20T14:32:56.261Z,4.70
2023-09-20T14:35:25.348Z,4.80
2023-09-20T14:37:56.177Z,3.50
2023-09-20T14:40:26.330Z,3.50
2023-09-20T14:42:59.008Z,3.20
2023-09-20T14:45:31.587Z,4.10
2023-09-20T14:48:03.397Z,3.00
2023-09-20T14:50:33.027Z,3.90
2023-09-20T14:53:01.462Z,3.20
2023-09-20T14:55:30.595Z,6.20
2023-09-20T14:57:59.827Z,3.70
2023-09-20T15:00:31.117Z,2.80
2023-09-20T15:03:02.537Z,3.80
2023-09-20T15:05:30.775Z,3.90
2023-09-20T15:07:59.650Z,3.60
2023-09-20T15:10:28.218Z,3.60
2023-09-20T15:13:00.191Z,3.70
2023-09-20T15:15:29.876Z,4.60
2023-09-20T15:17:59.551Z,3.10
2023-09-20T15:20:30.206Z,3.40
2023-09-20T15:23:00.061Z,3.50
2023-09-20T15:25:31.095Z,3.80
2023-09-20T15:28:00.715Z,3.40
2023-09-20T15:30:31.278Z,3.70
2023-09-20T15:32:59.814Z,4.80
2023-09-20T15:35:27.956Z,4.60
2023-09-20T15:37:57.026Z,2.60
2023-09-20T15:40:27.880Z,4.60
2023-09-20T15:42:58.539Z,3.40
2023-09-20T15:45:28.070Z,2.60
2023-09-20T15:47:57.064Z,3.10
2023-09-20T15:50:26.540Z,3.20
2023-09-20T15:52:55.939Z,3.20
2023-09-20T15:55:23.982Z,5.40
2023-09-20T15:57:51.798Z,3.00
2023-09-20T16:00:19.617Z,4.80
2023-09-20T16:02:47.712Z,3.60
2023-09-20T16:05:16.436Z,2.50
2023-09-20T16:07:45.264Z,3.00
2023-09-20T16:10:21.864Z,10.50
2023-09-20T16:12:50.289Z,3.50
2023-09-20T16:15:18.712Z,6.70
2023-09-20T16:17:48.231Z,4.50
2023-09-20T16:20:16.803Z,4.10
2023-09-20T16:22:47.844Z,3.80
2023-09-20T16:25:16.443Z,8.60
2023-09-20T16:27:46.414Z,5.30
2023-09-20T16:30:15.754Z,5.10
2023-09-20T16:32:45.706Z,5.80
2023-09-20T16:35:16.706Z,5.70
2023-09-20T16:37:54.093Z,7.00
2023-09-20T16:40:22.217Z,5.70
2023-09-20T16:42:50.382Z,7.80
2023-09-20T16:45:19.970Z,6.00
2023-09-20T16:47:49.694Z,5.30
2023-09-20T16:50:19.410Z,5.30
2023-09-20T16:52:48.103Z,4.50
2023-09-20T16:55:20.784Z,4.80
2023-09-20T16:57:48.738Z,5.40
2023-09-20T17:00:17.634Z,8.50
2023-09-20T17:02:46.057Z,4.60
2023-09-20T17:05:17.189Z,6.30
2023-09-20T17:07:45.592Z,5.10
2023-09-20T17:10:17.200Z,6.00
2023-09-20T17:12:47.867Z,5.60
2023-09-20T17:15:17.280Z,6.20
2023-09-20T17:17:46.768Z,7.30
2023-09-20T17:20:15.448Z,7.30
2023-09-20T17:22:43.333Z,7.80
2023-09-20T17:25:15.533Z,8.20
2023-09-20T17:27:46.536Z,10.60
2023-09-20T17:30:20.702Z,10.30
2023-09-20T17:32:50.150Z,11.20
2023-09-20T17:35:18.811Z,14.20
2023-09-20T17:37:47.318Z,16.50
2023-09-20T17:40:18.078Z,21.80
2023-09-20T17:42:46.448Z,24.90
2023-09-20T17:45:14.472Z,27.60
2023-09-20T17:47:45.579Z,20.90
2023-09-20T17:50:14.228Z,18.40
2023-09-20T17:52:42.575Z,22.60
2023-09-20T17:55:10.636Z,24.60
2023-09-20T17:57:38.489Z,20.70
2023-09-20T18:00:13.104Z,12.30
2023-09-20T18:02:42.052Z,12.40
2023-09-20T18:05:10.742Z,13.00
2023-09-20T18:07:38.717Z,14.50
2023-09-20T18:10:06.948Z,15.00
2023-09-20T18:12:36.167Z,17.00
2023-09-20T18:15:05.388Z,12.20
2023-09-20T18:17:34.785Z,11.60
2023-09-20T18:20:05.024Z,7.90
2023-09-20T18:22:32.837Z,7.80
2023-09-20T18:25:02.645Z,12.90
2023-09-20T18:27:30.822Z,6.80
2023-09-20T18:29:58.901Z,9.20
2023-09-20T18:32:27.504Z,7.80
2023-09-20T18:34:55.469Z,9.70
2023-09-20T18:37:24.809Z,10.30
2023-09-20T18:39:52.657Z,11.30
2023-09-20T18:42:21.003Z,10.60
2023-09-20T18:44:50.162Z,9.60
2023-09-20T18:47:23.505Z,11.30
2023-09-20T18:49:57.556Z,15.40
2023-09-20T18:52:25.598Z,14.70
2023-09-20T18:54:55.180Z,20.70
2023-09-20T18:57:26.892Z,23.70
2023-09-20T18:59:54.692Z,23.20
2023-09-20T19:02:25.106Z,31.20
2023-09-20T19:04:56.993Z,28.40
2023-09-20T19:07:24.843Z,29.30
2023-09-20T19:09:55.899Z,22.80
2023-09-20T19:12:24.050Z,21.20
2023-09-20T19:14:53.996Z,20.00
2023-09-20T19:17:34.115Z,20.40
2023-09-20T19:20:08.811Z,16.50
2023-09-20T19:22:37.281Z,14.90
2023-09-20T19:25:06.459Z,15.90
2023-09-20T19:27:34.252Z,11.00
2023-09-20T19:30:06.204Z,12.90
2023-09-20T19:32:35.442Z,13.70
2023-09-20T19:35:06.562Z,19.70
2023-09-20T19:37:34.850Z,20.50
2023-09-20T19:40:20.393Z,19.90
2023-09-20T19:42:50.079Z,21.60
2023-09-20T19:45:19.815Z,19.60
2023-09-20T19:47:48.928Z,18.80
2023-09-20T19:50:20.240Z,12.40
2023-09-20T19:52:49.090Z,13.00
2023-09-20T19:55:26.187Z,10.60
2023-09-20T19:57:56.925Z,8.40
2023-09-20T20:00:26.269Z,8.40
2023-09-20T20:02:59.897Z,10.60
2023-09-20T20:05:29.218Z,11.40
2023-09-20T20:08:00.848Z,11.20
2023-09-20T20:10:30.827Z,6.90
2023-09-20T20:12:59.333Z,5.90
2023-09-20T20:15:31.518Z,8.30
2023-09-20T20:18:01.910Z,5.70
2023-09-20T20:20:33.885Z,5.10
2023-09-20T20:23:06.237Z,5.70
2023-09-20T20:25:38.826Z,4.90
2023-09-20T20:28:19.839Z,7.00
2023-09-20T20:30:47.712Z,6.90
2023-09-20T20:33:16.089Z,5.80
2023-09-20T20:35:44.494Z,7.50
2023-09-20T20:38:13.295Z,5.40
2023-09-20T20:40:47.751Z,6.10
2023-09-20T20:43:15.723Z,5.90
2023-09-20T20:45:43.598Z,6.90
2023-09-20T20:48:12.344Z,6.50
2023-09-20T20:50:42.228Z,6.30
2023-09-20T20:53:14.929Z,8.60
2023-09-20T20:55:44.119Z,9.40
2023-09-20T20:58:14.261Z,7.90
2023-09-20T21:00:51.762Z,11.20
2023-09-20T21:03:20.712Z,8.50
2023-09-20T21:05:50.757Z,8.60
2023-09-20T21:08:21.895Z,11.00
2023-09-20T21:10:50.315Z,11.80
2023-09-20T21:13:18.984Z,11.20
2023-09-20T21:15:46.859Z,8.80
2023-09-20T21:18:19.919Z,9.10
2023-09-20T21:20:56.973Z,10.90
2023-09-20T21:23:25.043Z,10.10
2023-09-20T21:25:53.222Z,8.20
2023-09-20T21:28:20.999Z,9.40
2023-09-20T21:30:48.723Z,8.40
2023-09-20T21:33:17.539Z,8.90
2023-09-20T21:35:45.982Z,10.00
2023-09-20T21:38:13.725Z,11.50
2023-09-20T21:40:45.164Z,10.70
2023-09-20T21:43:13.425Z,12.20
2023-09-20T21:45:41.708Z,10.00
2023-09-20T21:48:11.226Z,9.70
2023-09-20T21:50:41.429Z,12.00
2023-09-20T21:53:12.902Z,10.80
2023-09-20T21:55:40.878Z,12.10
2023-09-20T21:58:08.703Z,10.50
2023-09-20T22:00:38.361Z,10.40
2023-09-20T22:03:08.820Z,9.90
2023-09-20T22:05:38.246Z,9.00
2023-09-20T22:08:10.401Z,11.10
2023-09-20T22:10:46.252Z,10.00
2023-09-20T22:13:15.248Z,9.40
2023-09-20T22:15:46.248Z,10.20
2023-09-20T22:18:28.223Z,8.80
2023-09-20T22:21:09.089Z,8.80
2023-09-20T22:23:38.107Z,8.80
2023-09-20T22:26:09.299Z,10.70
2023-09-20T22:28:37.453Z,10.50
2023-09-20T22:31:06.190Z,9.10
2023-09-20T22:33:38.554Z,10.80
2023-09-20T22:36:14.112Z,9.60
2023-09-20T22:38:45.773Z,9.90
2023-09-20T22:41:16.801Z,8.60
2023-09-20T22:43:46.603Z,12.60
2023-09-20T22:46:17.467Z,8.70
2023-09-20T22:48:46.263Z,12.60
2023-09-20T22:51:17.373Z,10.50
2023-09-20T22:53:45.373Z,9.30
2023-09-20T22:56:13.583Z,11.00
2023-09-20T22:58:43.935Z,11.00
2023-09-20T23:01:15.684Z,10.80
2023-09-20T23:03:43.944Z,10.80
2023-09-20T23:06:12.134Z,9.00
2023-09-20T23:08:40.685Z,7.30
2023-09-20T23:11:11.205Z,8.80
2023-09-20T23:13:40.964Z,11.30
2023-09-20T23:16:17.817Z,10.30
2023-09-20T23:18:46.948Z,8.80
2023-09-20T23:21:17.547Z,10.40
2023-09-20T23:23:48.837Z,10.30
2023-09-20T23:26:18.335Z,9.40
2023-09-20T23:28:46.749Z,10.40
2023-09-20T23:31:17.329Z,9.10
2023-09-20T23:33:47.366Z,9.60
2023-09-20T23:36:16.614Z,9.10
2023-09-20T23:38:45.400Z,8.40
2023-09-20T23:41:17.032Z,10.60
2023-09-20T23:43:48.216Z,10.30
2023-09-20T23:46:21.663Z,9.50
2023-09-20T23:48:51.615Z,10.90
2023-09-20T23:51:22.464Z,11.30
2023-09-20T23:53:50.834Z,9.90
2023-09-20T23:56:19.537Z,9.30
2023-09-20T23:58:48.099Z,8.60
